createdAt,value
2019-03-31T00:00:40.369Z,66.33
2019-03-31T00:03:09.835Z,66.57
2019-03-31T00:05:39.273Z,66.83
2019-03-31T00:08:08.842Z,67.16
2019-03-31T00:10:38.286Z,67.11
2019-03-31T00:13:07.756Z,67.48
2019-03-31T00:15:37.330Z,67.22
2019-03-31T00:18:06.888Z,67.64
2019-03-31T00:20:36.359Z,67.78
2019-03-31T00:23:05.897Z,67.86
2019-03-31T00:25:35.347Z,68.00
2019-03-31T00:28:04.821Z,68.12
2019-03-31T00:30:34.353Z,68.33
2019-03-31T00:33:03.839Z,68.58
2019-03-31T00:35:33.334Z,68.80
2019-03-31T00:38:02.814Z,68.83
2019-03-31T00:40:33.225Z,68.95
2019-03-31T00:43:02.723Z,69.20
2019-03-31T00:45:32.188Z,69.40
2019-03-31T00:48:01.716Z,69.48
2019-03-31T00:50:31.185Z,69.58
2019-03-31T00:53:01.351Z,69.86
2019-03-31T00:55:30.813Z,70.00
2019-03-31T00:58:00.282Z,70.17
2019-03-31T01:00:47.911Z,70.31
2019-03-31T01:03:21.035Z,70.45
2019-03-31T01:05:50.997Z,70.60
2019-03-31T01:08:20.747Z,70.95
2019-03-31T01:10:50.484Z,70.92
2019-03-31T01:13:20.466Z,71.28
2019-03-31T01:15:50.408Z,71.40
2019-03-31T01:18:19.919Z,71.41
2019-03-31T01:20:50.507Z,71.62
2019-03-31T01:23:19.979Z,71.73
2019-03-31T01:25:49.463Z,72.12
2019-03-31T01:28:20.194Z,72.31
2019-03-31T01:30:50.939Z,72.61
2019-03-31T01:33:20.804Z,72.74
2019-03-31T01:35:50.609Z,72.81
2019-03-31T01:38:20.155Z,72.90
2019-03-31T01:40:49.931Z,73.08
2019-03-31T01:43:19.405Z,73.00
2019-03-31T01:45:48.978Z,73.11
2019-03-31T01:48:18.953Z,73.23
2019-03-31T01:50:48.456Z,73.18
2019-03-31T01:53:18.299Z,73.50
2019-03-31T01:55:48.026Z,73.48
2019-03-31T01:58:17.648Z,73.38
2019-03-31T02:00:51.439Z,73.54
2019-03-31T02:03:21.102Z,73.53
2019-03-31T02:05:50.535Z,73.64
2019-03-31T02:08:20.073Z,73.49
2019-03-31T02:10:50.870Z,73.85
2019-03-31T02:13:20.354Z,73.56
2019-03-31T02:15:50.190Z,73.59
2019-03-31T02:18:19.698Z,73.87
2019-03-31T02:20:49.128Z,73.88
2019-03-31T02:23:18.843Z,73.83
2019-03-31T02:25:48.631Z,73.83
2019-03-31T02:28:18.184Z,73.92
2019-03-31T02:30:47.746Z,74.06
2019-03-31T02:33:17.277Z,74.27
2019-03-31T02:35:46.792Z,74.12
2019-03-31T02:38:16.232Z,74.16
2019-03-31T02:40:45.702Z,74.16
2019-03-31T02:43:15.255Z,74.21
2019-03-31T02:45:45.052Z,74.34
2019-03-31T02:48:14.505Z,74.22
2019-03-31T02:50:49.809Z,74.32
2019-03-31T02:53:20.605Z,74.52
2019-03-31T02:55:50.265Z,74.54
2019-03-31T02:58:20.303Z,74.69
2019-03-31T03:00:49.892Z,75.02
2019-03-31T03:03:20.883Z,74.93
2019-03-31T03:05:50.420Z,75.29
2019-03-31T03:08:20.312Z,74.96
2019-03-31T03:10:51.774Z,74.96
2019-03-31T03:13:24.809Z,75.08
2019-03-31T03:16:09.132Z,75.05
2019-03-31T03:18:38.591Z,75.32
2019-03-31T03:21:08.201Z,75.33
2019-03-31T03:23:38.622Z,75.21
2019-03-31T03:26:08.101Z,75.42
2019-03-31T03:28:37.522Z,75.57
2019-03-31T03:31:14.447Z,75.83
2019-03-31T03:33:39.298Z,75.87
2019-03-31T03:36:08.875Z,75.77
2019-03-31T03:38:38.338Z,75.84
2019-03-31T03:41:07.852Z,76.01
2019-03-31T03:43:53.972Z,76.08
2019-03-31T03:46:08.599Z,75.97
2019-03-31T03:48:38.062Z,76.05
2019-03-31T03:51:07.610Z,76.26
2019-03-31T03:53:37.225Z,76.25
2019-03-31T03:56:06.837Z,76.58
2019-03-31T03:58:36.389Z,76.49
2019-03-31T04:01:07.558Z,76.89
2019-03-31T04:03:37.030Z,77.06
2019-03-31T04:06:06.509Z,77.61
2019-03-31T04:08:35.984Z,77.49
2019-03-31T04:11:14.369Z,77.73
2019-03-31T04:13:44.081Z,77.73
2019-03-31T04:16:13.555Z,78.04
2019-03-31T04:18:43.430Z,78.16
2019-03-31T04:21:13.074Z,78.47
2019-03-31T04:23:42.506Z,78.81
2019-03-31T04:26:11.999Z,78.77
2019-03-31T04:28:41.563Z,79.43
2019-03-31T04:31:11.161Z,79.41
2019-03-31T04:33:50.395Z,80.30
2019-03-31T04:36:11.790Z,80.30
2019-03-31T04:38:41.308Z,80.98
2019-03-31T04:41:10.819Z,81.40
2019-03-31T04:43:40.248Z,82.09
2019-03-31T04:46:09.724Z,82.62
2019-03-31T04:48:39.199Z,83.38
2019-03-31T04:51:09.830Z,83.74
2019-03-31T04:53:39.423Z,84.03
2019-03-31T04:56:08.896Z,83.69
2019-03-31T04:58:38.519Z,83.84
2019-03-31T05:01:07.981Z,83.69
2019-03-31T05:03:37.528Z,83.34
2019-03-31T05:06:07.964Z,83.55
2019-03-31T05:08:37.441Z,83.46
2019-03-31T05:11:06.871Z,83.78
2019-03-31T05:13:36.350Z,83.96
2019-03-31T05:16:06.021Z,83.70
2019-03-31T05:18:35.514Z,83.69
2019-03-31T05:21:05.022Z,83.67
2019-03-31T05:23:34.559Z,83.63
2019-03-31T05:26:04.635Z,83.45
2019-03-31T05:28:36.959Z,83.43
2019-03-31T05:31:06.706Z,83.17
2019-03-31T05:33:36.202Z,83.16
2019-03-31T05:36:05.678Z,83.05
2019-03-31T05:38:36.509Z,82.93
2019-03-31T05:41:06.097Z,82.71
2019-03-31T05:43:35.569Z,82.59
2019-03-31T05:46:05.104Z,82.43
2019-03-31T05:48:34.645Z,82.49
2019-03-31T05:51:06.420Z,82.34
2019-03-31T05:53:35.883Z,82.50
2019-03-31T05:56:05.328Z,82.44
2019-03-31T05:58:34.798Z,82.16
2019-03-31T06:01:04.408Z,82.04
2019-03-31T06:03:33.871Z,81.99
2019-03-31T06:06:04.404Z,81.74
2019-03-31T06:08:33.838Z,81.52
2019-03-31T06:11:04.430Z,81.23
2019-03-31T06:13:33.903Z,80.80
2019-03-31T06:16:04.598Z,80.58
2019-03-31T06:18:34.057Z,80.40
2019-03-31T06:21:04.514Z,80.31
2019-03-31T06:23:34.026Z,80.25
2019-03-31T06:26:04.526Z,80.10
2019-03-31T06:28:33.946Z,80.03
2019-03-31T06:31:03.437Z,79.80
2019-03-31T06:33:32.878Z,79.58
2019-03-31T06:36:02.352Z,79.29
2019-03-31T06:38:31.854Z,79.02
2019-03-31T06:41:01.333Z,78.76
2019-03-31T06:43:30.758Z,78.56
2019-03-31T06:46:00.496Z,78.24
2019-03-31T06:48:29.925Z,77.99
2019-03-31T06:50:59.409Z,77.65
2019-03-31T06:53:28.929Z,77.37
2019-03-31T06:55:58.407Z,77.33
2019-03-31T06:58:27.884Z,77.35
2019-03-31T07:00:57.320Z,77.18
2019-03-31T07:03:26.800Z,76.71
2019-03-31T07:05:56.278Z,76.06
2019-03-31T07:08:25.725Z,75.80
2019-03-31T07:10:55.208Z,75.56
2019-03-31T07:13:24.688Z,75.04
2019-03-31T07:15:54.340Z,74.55
2019-03-31T07:18:23.799Z,74.34
2019-03-31T07:20:53.282Z,73.99
2019-03-31T07:23:22.813Z,73.80
2019-03-31T07:25:52.358Z,73.76
2019-03-31T07:28:21.788Z,73.96
2019-03-31T07:30:51.888Z,73.61
2019-03-31T07:33:21.515Z,73.69
2019-03-31T07:35:51.004Z,73.53
2019-03-31T07:38:20.733Z,73.25
2019-03-31T07:40:50.430Z,72.91
2019-03-31T07:43:20.052Z,72.54
2019-03-31T07:45:49.848Z,72.33
2019-03-31T07:48:19.358Z,72.08
2019-03-31T07:50:48.810Z,71.44
2019-03-31T07:53:18.302Z,71.26
2019-03-31T07:55:47.757Z,70.87
2019-03-31T07:58:17.273Z,70.17
2019-03-31T08:00:46.895Z,69.62
2019-03-31T08:03:16.403Z,69.79
2019-03-31T08:05:45.976Z,69.49
2019-03-31T08:08:15.407Z,69.17
2019-03-31T08:10:44.887Z,68.59
2019-03-31T08:13:14.347Z,68.43
2019-03-31T08:15:43.893Z,67.81
2019-03-31T08:18:13.336Z,67.87
2019-03-31T08:20:43.889Z,68.57
2019-03-31T08:23:13.323Z,69.03
2019-03-31T08:25:42.993Z,69.65
2019-03-31T08:28:12.529Z,70.21
2019-03-31T08:30:42.077Z,69.92
2019-03-31T08:33:11.517Z,69.66
2019-03-31T08:35:47.097Z,69.74
2019-03-31T08:38:12.365Z,69.82
2019-03-31T08:40:41.878Z,69.61
2019-03-31T08:43:11.461Z,69.16
2019-03-31T08:45:42.008Z,68.41
2019-03-31T08:48:11.717Z,67.30
2019-03-31T08:50:41.205Z,67.05
2019-03-31T08:53:10.657Z,66.88
2019-03-31T08:55:40.157Z,66.35
2019-03-31T08:58:09.615Z,66.62
2019-03-31T09:00:55.921Z,66.11
2019-03-31T09:03:25.519Z,65.04
2019-03-31T09:06:01.500Z,64.83
2019-03-31T09:08:26.360Z,64.60
2019-03-31T09:10:55.822Z,64.22
2019-03-31T09:13:27.136Z,62.50
2019-03-31T09:15:56.933Z,61.67
2019-03-31T09:18:26.403Z,61.27
2019-03-31T09:20:55.835Z,60.59
2019-03-31T09:23:25.289Z,60.27
2019-03-31T09:25:54.725Z,60.27
2019-03-31T09:28:24.199Z,60.68
2019-03-31T09:30:54.604Z,59.26
2019-03-31T09:33:24.057Z,59.36
2019-03-31T09:35:53.496Z,59.19
2019-03-31T09:38:23.040Z,58.77
2019-03-31T09:40:52.532Z,60.05
2019-03-31T09:43:22.142Z,59.84
2019-03-31T09:45:51.697Z,60.45
2019-03-31T09:48:21.317Z,60.94
2019-03-31T09:50:50.723Z,61.62
2019-03-31T09:53:20.196Z,61.82
2019-03-31T09:55:49.631Z,62.29
2019-03-31T09:58:19.144Z,63.01
2019-03-31T10:00:51.063Z,63.69
2019-03-31T10:03:21.601Z,64.07
2019-03-31T10:05:51.131Z,64.05
2019-03-31T10:08:22.205Z,63.73
2019-03-31T10:10:52.100Z,63.53
2019-03-31T10:13:21.564Z,62.15
2019-03-31T10:15:50.991Z,61.78
2019-03-31T10:18:20.465Z,61.11
2019-03-31T10:20:51.060Z,60.72
2019-03-31T10:23:22.079Z,60.49
2019-03-31T10:25:53.605Z,59.39
2019-03-31T10:28:23.069Z,59.12
2019-03-31T10:30:52.509Z,58.79
2019-03-31T10:33:22.014Z,58.40
2019-03-31T10:35:51.585Z,58.10
2019-03-31T10:38:21.080Z,57.86
2019-03-31T10:40:50.512Z,57.65
2019-03-31T10:43:19.989Z,57.08
2019-03-31T10:45:49.782Z,56.17
2019-03-31T10:48:21.139Z,56.02
2019-03-31T10:50:50.532Z,55.84
2019-03-31T10:53:19.996Z,55.46
2019-03-31T10:55:49.512Z,55.76
2019-03-31T10:58:19.002Z,56.20
2019-03-31T11:00:49.943Z,57.26
2019-03-31T11:03:19.593Z,57.85
2019-03-31T11:05:49.837Z,58.07
2019-03-31T11:08:20.296Z,58.51
2019-03-31T11:10:49.908Z,58.62
2019-03-31T11:13:19.817Z,58.63
2019-03-31T11:15:50.017Z,58.07
2019-03-31T11:18:20.172Z,57.42
2019-03-31T11:20:49.629Z,56.29
2019-03-31T11:23:21.951Z,55.23
2019-03-31T11:25:51.679Z,54.62
2019-03-31T11:28:21.328Z,53.87
2019-03-31T11:30:50.729Z,53.17
2019-03-31T11:33:20.230Z,52.58
2019-03-31T11:35:49.781Z,52.56
2019-03-31T11:38:19.755Z,52.35
2019-03-31T11:40:49.486Z,52.57
2019-03-31T11:43:19.069Z,51.49
2019-03-31T11:45:50.503Z,50.92
2019-03-31T11:48:20.703Z,50.17
2019-03-31T11:50:50.312Z,50.58
2019-03-31T11:53:20.428Z,49.87
2019-03-31T11:55:51.322Z,49.69
2019-03-31T11:58:20.818Z,49.20
2019-03-31T12:00:52.039Z,48.31
2019-03-31T12:03:21.581Z,48.03
2019-03-31T12:05:51.304Z,46.67
2019-03-31T12:08:20.790Z,46.67
2019-03-31T12:10:50.409Z,46.02
2019-03-31T12:13:21.337Z,45.89
2019-03-31T12:15:53.659Z,44.54
2019-03-31T12:18:23.287Z,45.38
2019-03-31T12:20:52.887Z,46.14
2019-03-31T12:23:22.726Z,45.13
2019-03-31T12:25:52.716Z,45.31
2019-03-31T12:28:23.913Z,46.10
2019-03-31T12:30:53.361Z,46.17
2019-03-31T12:33:22.845Z,46.17
2019-03-31T12:35:52.636Z,46.51
2019-03-31T12:38:22.067Z,45.18
2019-03-31T12:40:52.019Z,45.32
2019-03-31T12:43:21.700Z,45.85
2019-03-31T12:45:51.136Z,46.33
2019-03-31T12:48:20.696Z,46.00
2019-03-31T12:50:50.095Z,46.01
2019-03-31T12:53:20.131Z,45.10
2019-03-31T12:56:00.027Z,44.20
2019-03-31T12:58:21.805Z,43.13
2019-03-31T13:00:51.956Z,43.05
2019-03-31T13:03:21.894Z,41.84
2019-03-31T13:05:51.558Z,41.55
2019-03-31T13:08:21.029Z,40.36
2019-03-31T13:10:51.312Z,40.36
2019-03-31T13:13:20.848Z,40.50
2019-03-31T13:15:50.700Z,39.61
2019-03-31T13:18:20.254Z,39.24
2019-03-31T13:20:50.480Z,38.78
2019-03-31T13:23:20.305Z,39.51
2019-03-31T13:25:49.783Z,39.28
2019-03-31T13:28:19.865Z,39.76
2019-03-31T13:30:49.991Z,40.39
2019-03-31T13:33:19.626Z,40.57
2019-03-31T13:35:53.027Z,40.83
2019-03-31T13:38:20.866Z,39.55
2019-03-31T13:40:50.680Z,40.09
2019-03-31T13:43:20.115Z,39.90
2019-03-31T13:45:49.913Z,39.58
2019-03-31T13:48:19.357Z,39.26
2019-03-31T13:50:48.907Z,38.88
2019-03-31T13:53:18.327Z,39.31
2019-03-31T13:55:47.792Z,39.23
2019-03-31T13:58:18.818Z,38.50
2019-03-31T14:00:49.278Z,38.75
2019-03-31T14:03:18.822Z,38.44
2019-03-31T14:05:48.282Z,38.58
2019-03-31T14:08:25.438Z,37.89
2019-03-31T14:10:48.941Z,38.09
2019-03-31T14:13:18.568Z,38.32
2019-03-31T14:15:48.119Z,37.81
2019-03-31T14:18:17.702Z,38.06
2019-03-31T14:20:47.507Z,38.37
2019-03-31T14:23:17.099Z,38.04
2019-03-31T14:25:47.629Z,38.04
2019-03-31T14:28:17.087Z,38.36
2019-03-31T14:30:47.785Z,38.37
2019-03-31T14:33:18.099Z,38.51
2019-03-31T14:35:48.504Z,38.40
2019-03-31T14:38:18.127Z,38.47
2019-03-31T14:40:47.671Z,38.25
2019-03-31T14:43:18.106Z,38.75
2019-03-31T14:45:47.707Z,38.95
2019-03-31T14:48:17.197Z,38.42
2019-03-31T14:50:46.657Z,38.09
2019-03-31T14:53:16.101Z,38.78
2019-03-31T14:55:45.563Z,38.55
2019-03-31T14:58:15.167Z,38.52
2019-03-31T15:00:44.703Z,39.06
2019-03-31T15:03:14.209Z,38.44
2019-03-31T15:05:43.686Z,38.73
2019-03-31T15:08:13.166Z,38.49
2019-03-31T15:10:42.645Z,38.51
2019-03-31T15:13:12.877Z,38.52
2019-03-31T15:15:42.372Z,38.38
2019-03-31T15:18:11.812Z,38.45
2019-03-31T15:20:41.274Z,38.66
2019-03-31T15:23:10.772Z,39.09
2019-03-31T15:25:43.011Z,38.95
2019-03-31T15:28:11.469Z,39.32
2019-03-31T15:30:40.926Z,38.84
2019-03-31T15:33:10.383Z,38.96
2019-03-31T15:35:39.852Z,39.14
2019-03-31T15:38:09.338Z,39.13
2019-03-31T15:40:38.771Z,39.06
2019-03-31T15:43:08.224Z,39.09
2019-03-31T15:45:37.764Z,38.85
2019-03-31T15:48:08.082Z,39.28
2019-03-31T15:50:37.558Z,39.13
2019-03-31T15:53:07.022Z,39.16
2019-03-31T15:55:36.461Z,39.38
2019-03-31T15:58:06.014Z,39.69
2019-03-31T16:00:35.469Z,39.41
2019-03-31T16:03:04.969Z,39.52
2019-03-31T16:05:34.627Z,39.41
2019-03-31T16:08:04.773Z,39.45
2019-03-31T16:10:34.812Z,39.46
2019-03-31T16:13:04.577Z,39.60
2019-03-31T16:15:34.174Z,39.69
2019-03-31T16:18:05.147Z,39.53
2019-03-31T16:20:34.673Z,39.40
2019-03-31T16:23:04.218Z,39.93
2019-03-31T16:25:38.113Z,39.65
2019-03-31T16:28:07.977Z,39.71
2019-03-31T16:30:38.169Z,39.27
2019-03-31T16:33:07.625Z,39.49
2019-03-31T16:35:37.192Z,39.54
2019-03-31T16:38:06.680Z,39.44
2019-03-31T16:40:36.240Z,39.59
2019-03-31T16:43:05.667Z,39.38
2019-03-31T16:45:35.219Z,39.24
2019-03-31T16:48:04.860Z,39.21
2019-03-31T16:50:34.391Z,39.13
2019-03-31T16:53:04.636Z,39.27
2019-03-31T16:55:34.126Z,39.06
2019-03-31T16:58:04.343Z,38.10
2019-03-31T17:00:33.817Z,38.64
2019-03-31T17:03:04.514Z,38.71
2019-03-31T17:05:34.002Z,38.56
2019-03-31T17:08:04.411Z,38.87
2019-03-31T17:10:33.913Z,38.88
2019-03-31T17:13:03.998Z,38.62
2019-03-31T17:15:33.501Z,38.50
2019-03-31T17:18:03.081Z,38.73
2019-03-31T17:20:32.931Z,38.91
2019-03-31T17:23:02.870Z,38.93
2019-03-31T17:25:32.366Z,39.11
2019-03-31T17:28:02.113Z,39.44
2019-03-31T17:30:32.815Z,39.59
2019-03-31T17:33:03.953Z,39.81
2019-03-31T17:35:33.394Z,39.64
2019-03-31T17:38:02.931Z,39.71
2019-03-31T17:40:32.433Z,39.63
2019-03-31T17:43:02.100Z,39.98
2019-03-31T17:45:31.586Z,40.20
2019-03-31T17:48:01.393Z,40.47
2019-03-31T17:50:31.032Z,40.72
2019-03-31T17:53:03.639Z,40.55
2019-03-31T17:55:31.999Z,40.81
2019-03-31T17:58:01.560Z,40.95
2019-03-31T18:00:31.107Z,40.95
2019-03-31T18:03:00.592Z,41.30
2019-03-31T18:05:30.149Z,41.58
2019-03-31T18:07:59.621Z,41.53
2019-03-31T18:10:29.147Z,41.81
2019-03-31T18:12:59.218Z,41.92
2019-03-31T18:15:28.844Z,42.12
2019-03-31T18:17:59.346Z,42.43
2019-03-31T18:20:29.376Z,42.48
2019-03-31T18:22:59.570Z,42.51
2019-03-31T18:25:29.048Z,42.79
2019-03-31T18:27:59.655Z,42.70
2019-03-31T18:30:29.269Z,42.72
2019-03-31T18:32:58.769Z,42.95
2019-03-31T18:35:28.968Z,43.11
2019-03-31T18:37:58.613Z,43.24
2019-03-31T18:40:34.917Z,43.21
2019-03-31T18:42:59.402Z,43.30
2019-03-31T18:45:29.286Z,43.47
2019-03-31T18:48:01.056Z,43.58
2019-03-31T18:50:29.926Z,43.53
2019-03-31T18:53:00.569Z,43.62
2019-03-31T18:55:49.085Z,43.92
2019-03-31T18:58:20.280Z,43.90
2019-03-31T19:01:07.719Z,44.04
2019-03-31T19:03:54.612Z,44.01
2019-03-31T19:06:31.859Z,44.13
2019-03-31T19:09:03.035Z,44.24
2019-03-31T19:11:50.878Z,44.29
2019-03-31T19:14:22.392Z,44.36
2019-03-31T19:17:09.576Z,44.42
2019-03-31T19:19:41.004Z,44.51
2019-03-31T19:22:15.446Z,44.48
2019-03-31T19:24:49.833Z,44.57
2019-03-31T19:27:24.129Z,44.70
2019-03-31T19:29:55.860Z,44.88
2019-03-31T19:32:43.389Z,45.06
2019-03-31T19:35:14.609Z,45.25
2019-03-31T19:38:01.779Z,45.37
2019-03-31T19:41:03.000Z,45.41
2019-03-31T19:43:38.774Z,45.42
2019-03-31T19:46:16.619Z,45.57
2019-03-31T19:49:04.223Z,45.75
2019-03-31T19:51:41.856Z,46.05
2019-03-31T19:54:13.632Z,46.13
2019-03-31T19:56:51.396Z,46.40
2019-03-31T19:59:39.312Z,46.98
2019-03-31T20:02:26.690Z,47.34
2019-03-31T20:05:09.892Z,47.26
2019-03-31T20:07:46.878Z,47.41
2019-03-31T20:10:23.743Z,47.53
2019-03-31T20:12:55.275Z,47.61
2019-03-31T20:15:27.104Z,47.48
2019-03-31T20:18:14.499Z,47.48
2019-03-31T20:20:45.680Z,47.78
2019-03-31T20:23:32.915Z,47.76
2019-03-31T20:26:09.812Z,47.88
2019-03-31T20:28:49.399Z,48.00
2019-03-31T20:31:35.473Z,48.33
2019-03-31T20:34:18.886Z,48.30
2019-03-31T20:36:55.787Z,48.34
2019-03-31T20:39:26.936Z,48.31
2019-03-31T20:41:58.119Z,48.44
2019-03-31T20:44:27.587Z,48.53
2019-03-31T20:46:57.025Z,48.53
2019-03-31T20:49:26.481Z,48.89
2019-03-31T20:51:56.227Z,49.04
2019-03-31T20:54:25.991Z,49.14
2019-03-31T20:56:55.490Z,49.25
2019-03-31T20:59:25.043Z,49.43
2019-03-31T21:01:54.799Z,49.57
2019-03-31T21:04:24.359Z,49.66
2019-03-31T21:06:54.253Z,49.91
2019-03-31T21:09:23.849Z,49.98
2019-03-31T21:11:53.277Z,49.95
2019-03-31T21:14:22.743Z,50.03
2019-03-31T21:16:52.475Z,50.19
2019-03-31T21:19:22.016Z,50.34
2019-03-31T21:21:51.689Z,51.14
2019-03-31T21:24:21.378Z,50.97
2019-03-31T21:26:51.240Z,50.98
2019-03-31T21:29:20.785Z,51.16
2019-03-31T21:31:50.293Z,51.64
2019-03-31T21:34:19.811Z,52.00
2019-03-31T21:36:49.858Z,51.77
2019-03-31T21:39:19.730Z,52.02
2019-03-31T21:41:49.826Z,52.48
2019-03-31T21:44:19.502Z,52.83
2019-03-31T21:46:49.283Z,52.93
2019-03-31T21:49:18.769Z,52.74
2019-03-31T21:51:48.337Z,52.68
2019-03-31T21:54:17.841Z,52.68
2019-03-31T21:56:47.298Z,52.61
2019-03-31T21:59:16.768Z,52.65
2019-03-31T22:01:46.406Z,52.64
2019-03-31T22:04:16.205Z,52.71
2019-03-31T22:06:45.772Z,52.71
2019-03-31T22:09:15.821Z,52.74
2019-03-31T22:11:45.382Z,52.96
2019-03-31T22:14:14.892Z,53.03
2019-03-31T22:16:44.417Z,53.08
2019-03-31T22:19:14.283Z,53.10
2019-03-31T22:21:44.047Z,53.16
2019-03-31T22:24:13.480Z,53.19
2019-03-31T22:26:43.300Z,53.42
2019-03-31T22:29:12.736Z,53.49
2019-03-31T22:31:42.437Z,53.59
2019-03-31T22:34:11.928Z,53.53
2019-03-31T22:36:43.108Z,53.49
2019-03-31T22:39:12.540Z,53.39
2019-03-31T22:41:42.013Z,53.37
2019-03-31T22:44:11.824Z,53.17
2019-03-31T22:46:53.682Z,53.14
2019-03-31T22:49:12.423Z,53.08
2019-03-31T22:51:42.348Z,53.02
2019-03-31T22:54:12.585Z,53.11
2019-03-31T22:56:42.263Z,53.34
2019-03-31T22:59:11.802Z,53.32
2019-03-31T23:01:41.333Z,53.51
2019-03-31T23:04:10.805Z,53.57
2019-03-31T23:06:40.243Z,53.84
2019-03-31T23:09:09.853Z,53.88
2019-03-31T23:11:39.545Z,54.00
2019-03-31T23:14:09.113Z,54.08
2019-03-31T23:16:38.947Z,54.19
2019-03-31T23:19:08.535Z,54.25
2019-03-31T23:21:38.234Z,54.45
2019-03-31T23:24:08.113Z,54.39
2019-03-31T23:26:37.570Z,54.42
2019-03-31T23:29:07.351Z,54.42
2019-03-31T23:31:36.786Z,54.54
2019-03-31T23:34:06.263Z,54.55
2019-03-31T23:36:36.715Z,54.64
2019-03-31T23:39:07.923Z,54.80
2019-03-31T23:41:37.365Z,54.73
2019-03-31T23:44:07.004Z,54.77
2019-03-31T23:46:36.923Z,54.84
2019-03-31T23:49:06.634Z,54.83
2019-03-31T23:51:36.078Z,54.80
2019-03-31T23:54:05.793Z,54.96
2019-03-31T23:56:35.253Z,54.96
2019-03-31T23:59:04.790Z,54.94
